Portada
METAR-TAF:

METAR-TAF

Aeroports :

Stuttgart, Alemanya

latitud: 48-41N, longitud: 009-13E, altitud: 396 m

Observació

L'informe es va fer fa 13 minuts, a les 04:20 UTC
Vent 2 kt del Nord-Est
Temperatura 4°C
Humitat 81%
Pressió 1028 hPa
Visibilitat 10 km o més
sense núvols per sota de 1500 mi sense presència de cumulonimbus.

METAR: EDDS 070420Z 05002KT CAVOK 04/01 Q1028 NOSIG

Hora: 06:33 (04:33 UTC)

Pronòstic

L'informe es va fer fa 5 hores i 33 minuts, a les 23:00 UTC
Pronòstic vàlid del 07 a les 00 UTC al 07 a les 24 UTC
Vent 3 kt amb direcció variable
Visibilitat 10 km o més
sense núvols per sota de 1500 mi sense presència de cumulonimbus.
Evolucionant progressivament
l' 07 a les 08 UTC al 07 a les 11 UTC
Vent 6 kt del Est/Nord-Est
Evolucionant progressivament
l' 07 a les 18 UTC al 07 a les 21 UTC
Vent 3 kt amb direcció variable

TAF: EDDS 062300Z 0700/0724 VRB03KT CAVOK BECMG 0708/0711 06006KT BECMG 0718/0721 VRB03KT

Observacions i pronòstics meteorològics de més de 4000 aeroports (METAR i TAF).

Les estacions disponibles són els punts grocs i vermells al mapa.

Posi el ratolí al punt desitjat per veure el nom de l'estació.

Feu clic per veure les observacions i els pronòstics meteorològics.

Per canviar el mapa: feu clic els botons verds amb una creu de color negre per apropar; al botó verd amb un guió per allunyar la imatge; o en les fletxes verdes per a mapes adjacents.


METAR-TAF: